Time;durP1;ratioP1;P1;durP2;ratioP2;P2;SDS_P1;SDS_P2;PMS_P1;PMS_P2;Temp;Humidity;BMP_temperature;BMP_pressure;BME280_temperature;BME280_humidity;BME280_pressure;Samples;Min_cycle;Max_cycle;Signal;HPM_P1;HPM_P2
2023/08/31 00:02:00;;;;;;;2.88;2.20;;;;;;;16.04;83.58;96170.59;6188044;23;20028;-81
2023/08/31 00:04:28;;;;;;;1.90;1.63;;;;;;;15.99;82.30;96165.22;6188026;23;20032;-81
2023/08/31 00:06:56;;;;;;;3.22;2.10;;;;;;;15.93;80.72;96166.13;6187516;23;20021;-80
2023/08/31 00:09:25;;;;;;;4.32;2.22;;;;;;;15.92;82.27;96161.91;6188459;23;20021;-80
2023/08/31 00:11:53;;;;;;;3.72;1.80;;;;;;;15.90;81.47;96153.44;6186612;23;20028;-80
2023/08/31 00:14:22;;;;;;;3.45;1.85;;;;;;;15.89;82.74;96143.94;6186447;23;20025;-81
2023/08/31 00:16:50;;;;;;;1.90;1.65;;;;;;;15.88;81.20;96138.91;6187016;23;20024;-81
2023/08/31 00:19:19;;;;;;;1.90;1.75;;;;;;;15.84;81.83;96149.88;6187433;23;20052;-81
2023/08/31 00:21:48;;;;;;;2.08;1.88;;;;;;;15.85;81.49;96150.66;6186968;23;20029;-80
2023/08/31 00:24:16;;;;;;;2.45;2.25;;;;;;;15.84;83.47;96154.34;6185818;23;20017;-81
2023/08/31 00:26:45;;;;;;;3.92;1.90;;;;;;;15.87;84.01;96148.63;6187148;23;20021;-81
2023/08/31 00:29:14;;;;;;;2.17;1.92;;;;;;;15.89;84.22;96146.56;6186448;23;20451;-81
2023/08/31 00:31:42;;;;;;;1.80;1.65;;;;;;;15.91;83.95;96151.59;6186219;23;20336;-81
2023/08/31 00:34:14;;;;;;;2.00;1.75;;;;;;;15.90;83.15;96158.69;6185576;23;20032;-80
2023/08/31 00:36:43;;;;;;;3.55;1.73;;;;;;;15.87;82.52;96153.88;6186605;23;20025;-80
2023/08/31 00:39:11;;;;;;;1.92;1.83;;;;;;;15.85;82.36;96150.66;6186800;23;20034;-81
2023/08/31 00:41:39;;;;;;;1.60;1.50;;;;;;;15.83;82.04;96147.47;6185861;23;20025;-80
2023/08/31 00:44:07;;;;;;;2.33;1.75;;;;;;;15.81;81.47;96149.53;6187369;23;20458;-80
2023/08/31 00:46:36;;;;;;;2.45;2.03;;;;;;;15.80;82.03;96155.81;6187952;23;20021;-80
2023/08/31 00:49:04;;;;;;;2.13;1.83;;;;;;;15.72;80.27;96158.75;6189371;23;20017;-81
2023/08/31 00:51:32;;;;;;;2.47;1.65;;;;;;;15.66;79.72;96169.13;6189566;23;20028;-80
2023/08/31 00:54:02;;;;;;;2.65;1.70;;;;;;;15.64;79.66;96168.53;6189378;23;20036;-81
2023/08/31 00:56:30;;;;;;;2.17;1.50;;;;;;;15.63;79.50;96166.97;6188826;23;20032;-80
2023/08/31 00:58:58;;;;;;;1.95;1.75;;;;;;;15.64;79.87;96160.66;6188884;23;20335;-80
2023/08/31 01:01:33;;;;;;;2.97;1.75;;;;;;;15.63;79.49;96166.13;6187910;23;20013;-80
2023/08/31 01:04:14;;;;;;;1.75;1.60;;;;;;;15.60;77.94;96169.22;6188092;23;20101;-81
2023/08/31 01:06:52;;;;;;;2.22;1.50;;;;;;;15.59;80.28;96168.44;6189024;23;20025;-81
2023/08/31 01:09:31;;;;;;;2.63;1.77;;;;;;;15.57;79.42;96165.22;6188235;23;20079;-80
2023/08/31 01:12:05;;;;;;;5.20;1.90;;;;;;;15.52;78.57;96162.44;6188262;23;20027;-80
2023/08/31 01:14:39;;;;;;;2.15;1.90;;;;;;;15.47;79.43;96167.56;6188073;23;20068;-81
2023/08/31 01:17:08;;;;;;;2.60;1.70;;;;;;;15.46;79.17;96168.63;6188452;23;20036;-81
2023/08/31 01:19:46;;;;;;;2.58;2.20;;;;;;;15.43;78.62;96179.56;6188706;23;20073;-81
2023/08/31 01:22:22;;;;;;;2.13;1.80;;;;;;;15.44;80.30;96178.53;6188497;23;20013;-80
2023/08/31 01:24:52;;;;;;;3.40;2.17;;;;;;;15.44;79.96;96184.59;6187413;23;20029;-81
2023/08/31 01:27:20;;;;;;;1.90;1.60;;;;;;;15.43;79.82;96184.81;6188024;23;20027;-81
2023/08/31 01:29:48;;;;;;;1.67;1.50;;;;;;;15.39;79.99;96181.84;6187920;23;20024;-81
2023/08/31 01:32:17;;;;;;;2.53;1.83;;;;;;;15.40;80.31;96180.00;6187970;23;20358;-80
2023/08/31 01:34:45;;;;;;;4.15;2.15;;;;;;;15.38;80.28;96185.47;6187124;23;20362;-81
2023/08/31 01:37:20;;;;;;;2.50;1.80;;;;;;;15.35;79.98;96185.94;6187954;23;20474;-81
2023/08/31 01:39:57;;;;;;;4.65;1.92;;;;;;;15.33;80.55;96185.34;6187453;23;20024;-81
2023/08/31 01:42:28;;;;;;;3.45;1.70;;;;;;;15.34;80.33;96186.16;6188027;23;20052;-81
2023/08/31 01:44:58;;;;;;;2.05;1.73;;;;;;;15.31;78.83;96182.13;6187600;23;20055;-80
2023/08/31 01:47:26;;;;;;;3.97;2.08;;;;;;;15.29;79.49;96188.66;6188029;23;20087;-80
2023/08/31 01:49:55;;;;;;;2.67;2.03;;;;;;;15.27;80.74;96183.59;6188070;23;20017;-81
2023/08/31 01:52:23;;;;;;;3.13;2.20;;;;;;;15.22;79.94;96181.66;6187514;23;20035;-80
2023/08/31 01:54:52;;;;;;;3.70;2.00;;;;;;;15.19;79.65;96174.19;6187565;23;20035;-80
2023/08/31 01:57:21;;;;;;;2.85;2.40;;;;;;;15.18;80.75;96172.59;6187646;23;20040;-81
2023/08/31 01:59:49;;;;;;;2.15;1.90;;;;;;;15.11;79.54;96171.88;6187658;23;20021;-81
2023/08/31 02:02:17;;;;;;;3.65;1.92;;;;;;;15.08;79.66;96182.81;6187902;23;20080;-81
2023/08/31 02:04:46;;;;;;;3.33;2.20;;;;;;;15.07;81.39;96181.22;6188222;23;20017;-80
2023/08/31 02:07:14;;;;;;;2.05;1.85;;;;;;;15.07;80.61;96183.84;6187836;23;20020;-81
2023/08/31 02:09:43;;;;;;;2.22;2.05;;;;;;;15.08;82.63;96192.53;6188072;23;20028;-81
2023/08/31 02:12:11;;;;;;;3.60;1.98;;;;;;;15.09;84.51;96194.94;6188161;23;20025;-81
2023/08/31 02:14:40;;;;;;;3.40;1.92;;;;;;;15.02;80.30;96199.44;6188146;23;20017;-80
2023/08/31 02:17:08;;;;;;;3.30;2.38;;;;;;;14.97;81.03;96202.72;6188148;23;20025;-81
2023/08/31 02:19:35;;;;;;;2.33;2.13;;;;;;;14.96;81.80;96206.41;6188438;23;20021;-80
2023/08/31 02:22:04;;;;;;;2.20;1.90;;;;;;;14.96;82.14;96206.41;6187804;23;20017;-81
2023/08/31 02:24:32;;;;;;;3.78;2.53;;;;;;;14.92;82.06;96205.22;6187154;23;20013;-81
2023/08/31 02:27:01;;;;;;;2.75;2.08;;;;;;;14.89;79.99;96215.34;6187379;23;20027;-80
2023/08/31 02:29:29;;;;;;;5.53;2.80;;;;;;;14.89;82.38;96216.19;6187165;23;20017;-81
2023/08/31 02:31:59;;;;;;;5.13;2.22;;;;;;;14.85;81.80;96220.25;6187296;23;20366;-81
2023/08/31 02:34:28;;;;;;;3.30;2.10;;;;;;;14.82;83.17;96226.75;6187951;23;20059;-80
2023/08/31 02:36:56;;;;;;;3.38;2.30;;;;;;;14.83;82.33;96224.91;6187357;23;20017;-81
2023/08/31 02:39:24;;;;;;;2.63;2.40;;;;;;;14.86;84.04;96229.72;6187650;23;20021;-81
2023/08/31 02:41:52;;;;;;;5.82;2.72;;;;;;;14.86;83.32;96232.34;6189204;23;20014;-81
2023/08/31 02:44:21;;;;;;;8.30;2.40;;;;;;;14.89;84.11;96228.47;6188553;23;20072;-80
2023/08/31 02:46:49;;;;;;;2.05;1.83;;;;;;;14.87;81.41;96225.28;6187897;23;20027;-81
2023/08/31 02:49:19;;;;;;;4.07;2.17;;;;;;;14.83;81.69;96232.78;6187295;23;20100;-81
2023/08/31 02:51:49;;;;;;;3.22;2.28;;;;;;;14.79;82.14;96224.53;6186722;23;20451;-81
2023/08/31 02:54:16;;;;;;;7.82;2.53;;;;;;;14.80;81.74;96220.91;6187176;23;20033;-80
2023/08/31 02:56:45;;;;;;;3.65;2.63;;;;;;;14.83;82.91;96211.78;6187519;23;20409;-81
2023/08/31 02:59:13;;;;;;;3.92;2.38;;;;;;;14.82;83.46;96216.25;6186975;23;20088;-81
2023/08/31 03:01:41;;;;;;;2.75;2.50;;;;;;;14.81;84.61;96225.13;6186571;23;20017;-80
2023/08/31 03:04:10;;;;;;;3.35;2.22;;;;;;;14.81;84.36;96219.06;6186288;23;20550;-80
2023/08/31 03:06:39;;;;;;;2.50;2.30;;;;;;;14.74;81.62;96218.34;6186340;23;20068;-81
2023/08/31 03:09:09;;;;;;;3.35;2.45;;;;;;;14.69;80.99;96221.59;6187444;23;20025;-81
2023/08/31 03:11:37;;;;;;;8.25;3.20;;;;;;;14.69;84.63;96218.97;6187085;23;20029;-80
2023/08/31 03:14:04;;;;;;;3.70;2.78;;;;;;;14.65;82.43;96222.25;6186430;23;20023;-81
2023/08/31 03:16:33;;;;;;;3.22;2.50;;;;;;;14.56;80.72;96227.81;6186517;23;20017;-80
2023/08/31 03:19:01;;;;;;;2.80;2.60;;;;;;;14.59;82.25;96227.34;6186238;23;20200;-81
2023/08/31 03:21:29;;;;;;;6.07;3.15;;;;;;;14.61;82.27;96229.78;6186959;23;20021;-81
2023/08/31 03:23:58;;;;;;;4.38;3.33;;;;;;;14.67;86.09;96228.91;6198761;22;20031;-79
2023/08/31 03:26:26;;;;;;;3.55;3.08;;;;;;;14.70;86.80;96225.84;6215305;23;20013;-79
2023/08/31 03:28:54;;;;;;;2.63;2.40;;;;;;;14.69;86.51;96216.34;6215882;23;20020;-79
2023/08/31 03:31:22;;;;;;;3.83;3.00;;;;;;;14.64;82.96;96226.72;6216235;23;20040;-79
2023/08/31 03:33:51;;;;;;;5.18;3.15;;;;;;;14.63;85.70;96228.53;6215584;23;20024;-79
2023/08/31 03:36:19;;;;;;;4.20;2.65;;;;;;;14.65;84.82;96230.94;6216436;23;20039;-79
2023/08/31 03:38:47;;;;;;;5.90;2.63;;;;;;;14.63;84.21;96227.75;6215954;23;20358;-80
2023/08/31 03:41:16;;;;;;;3.70;2.63;;;;;;;14.64;83.10;96234.59;6215436;23;20013;-80
2023/08/31 03:43:44;;;;;;;3.33;3.03;;;;;;;14.65;84.22;96236.19;6216253;23;20021;-79
2023/08/31 03:46:12;;;;;;;4.07;2.60;;;;;;;14.67;83.23;96238.59;6215654;23;20027;-80
2023/08/31 03:48:40;;;;;;;4.45;2.58;;;;;;;14.66;82.40;96248.28;6216299;23;20056;-79
2023/08/31 03:51:08;;;;;;;5.00;3.20;;;;;;;14.65;82.95;96246.69;6215864;23;20016;-79
2023/08/31 03:53:36;;;;;;;4.07;3.15;;;;;;;14.69;83.44;96252.31;6215533;23;20059;-80
2023/08/31 03:56:05;;;;;;;5.35;3.22;;;;;;;14.71;83.45;96245.03;6215294;23;20017;-79
2023/08/31 03:58:34;;;;;;;3.80;2.97;;;;;;;14.70;84.51;96254.72;6215637;23;20021;-79
2023/08/31 04:01:04;;;;;;;5.50;3.65;;;;;;;14.72;86.28;96263.19;6215084;23;20021;-79
2023/08/31 04:03:33;;;;;;;4.90;3.08;;;;;;;14.69;82.94;96268.84;6215099;23;20347;-79
2023/08/31 04:06:01;;;;;;;5.35;2.90;;;;;;;14.68;84.82;96277.75;6215171;23;20021;-79
2023/08/31 04:08:28;;;;;;;3.28;2.53;;;;;;;14.65;83.18;96275.56;6215432;23;20020;-79
2023/08/31 04:10:56;;;;;;;3.42;2.90;;;;;;;14.66;84.91;96279.78;6215822;23;20028;-79
2023/08/31 04:13:24;;;;;;;4.57;3.30;;;;;;;14.69;85.90;96284.59;6214969;23;20132;-79
2023/08/31 04:15:55;;;;;;;5.32;3.08;;;;;;;14.72;84.61;96281.56;6215316;23;20023;-79
2023/08/31 04:18:23;;;;;;;5.57;2.90;;;;;;;14.78;85.80;96277.25;6215537;23;20021;-80
2023/08/31 04:20:53;;;;;;;4.47;2.80;;;;;;;14.82;85.15;96284.53;6215855;23;20016;-79
2023/08/31 04:23:22;;;;;;;5.32;2.83;;;;;;;14.84;84.73;96284.28;6214505;23;20020;-79
2023/08/31 04:25:51;;;;;;;4.68;3.53;;;;;;;14.87;86.76;96280.41;6215302;23;20183;-79
2023/08/31 04:28:19;;;;;;;4.25;3.30;;;;;;;14.87;86.68;96280.41;6215188;23;20027;-79
2023/08/31 04:30:47;;;;;;;4.07;3.03;;;;;;;14.89;87.08;96278.38;6215824;23;20017;-79
2023/08/31 04:33:17;;;;;;;3.13;2.83;;;;;;;14.83;85.33;96286.09;6214914;23;20016;-79
2023/08/31 04:35:45;;;;;;;5.47;3.75;;;;;;;14.76;84.83;96290.63;6219066;23;20100;-79
2023/08/31 04:38:13;;;;;;;5.85;3.00;;;;;;;14.76;85.33;96293.25;6217899;23;20043;-79
2023/08/31 04:40:43;;;;;;;5.05;3.65;;;;;;;14.78;85.15;96299.09;6215583;23;20083;-79
2023/08/31 04:43:11;;;;;;;5.63;3.55;;;;;;;14.78;86.74;96304.34;6214620;23;20025;-79
2023/08/31 04:45:39;;;;;;;4.30;2.80;;;;;;;14.82;87.02;96305.53;6215507;23;20021;-80
2023/08/31 04:48:08;;;;;;;7.05;3.15;;;;;;;14.83;87.44;96301.88;6215197;23;20025;-79
2023/08/31 04:50:38;;;;;;;5.22;3.58;;;;;;;14.87;87.05;96309.31;6215436;23;20413;-79
2023/08/31 04:53:06;;;;;;;4.30;3.30;;;;;;;14.84;84.06;96300.03;6222571;23;20033;-79
2023/08/31 04:56:00;;;;;;;4.60;3.30;;;;;;;14.85;86.59;96309.53;6230250;23;20072;-79
2023/08/31 04:58:29;;;;;;;4.38;3.10;;;;;;;14.81;86.38;96309.16;6228071;23;20027;-80
2023/08/31 05:00:57;;;;;;;5.35;3.70;;;;;;;14.79;85.89;96300.69;6222876;23;20021;-78
2023/08/31 05:03:27;;;;;;;5.60;4.28;;;;;;;14.80;86.53;96301.47;6217458;23;20016;-79
2023/08/31 05:05:57;;;;;;;5.88;3.05;;;;;;;14.82;86.60;96300.28;6226032;23;20076;-79
2023/08/31 05:08:26;;;;;;;4.15;2.60;;;;;;;14.85;86.19;96314.78;6229487;23;20027;-80
2023/08/31 05:10:55;;;;;;;3.40;3.05;;;;;;;14.88;87.09;96318.81;6231131;23;20036;-79
2023/08/31 05:13:24;;;;;;;5.50;3.67;;;;;;;14.86;85.06;96321.63;6231964;23;20342;-80
2023/08/31 05:15:53;;;;;;;6.18;3.47;;;;;;;14.84;85.17;96318.41;6235233;23;20044;-79
2023/08/31 05:18:22;;;;;;;3.10;2.80;;;;;;;14.81;85.25;96322.28;6243825;22;20056;-80
2023/08/31 05:20:51;;;;;;;3.53;2.88;;;;;;;14.86;85.76;96331.34;6241938;22;20029;-79
2023/08/31 05:23:21;;;;;;;3.05;2.60;;;;;;;14.89;85.96;96330.91;6240041;23;20020;-79
2023/08/31 05:25:48;;;;;;;3.72;2.63;;;;;;;14.90;85.93;96337.78;6241951;22;20016;-80
2023/08/31 05:28:17;;;;;;;4.15;2.83;;;;;;;14.91;86.01;96342.00;6243794;22;20013;-80
2023/08/31 05:30:50;;;;;;;5.15;3.28;;;;;;;14.92;84.71;96344.41;6239044;22;20020;-80
2023/08/31 05:33:18;;;;;;;3.92;3.05;;;;;;;14.94;85.65;96344.22;6225728;23;20091;-80
2023/08/31 05:35:46;;;;;;;3.42;3.08;;;;;;;14.94;83.71;96338.94;6217072;23;20017;-78
2023/08/31 05:38:16;;;;;;;3.78;2.90;;;;;;;14.94;85.79;96338.94;6221975;23;20024;-81
2023/08/31 05:40:46;;;;;;;4.50;3.03;;;;;;;14.94;84.16;96339.75;6218901;23;20074;-80
2023/08/31 05:43:14;;;;;;;3.20;2.53;;;;;;;14.99;85.53;96336.47;6215630;23;20016;-77
2023/08/31 05:45:42;;;;;;;6.88;2.92;;;;;;;15.01;83.77;96342.31;6216194;23;20466;-78
2023/08/31 05:48:09;;;;;;;7.55;3.63;;;;;;;15.01;85.23;96334.44;6215677;23;20024;-75
2023/08/31 05:50:37;;;;;;;7.57;3.67;;;;;;;15.01;86.41;96339.69;6215705;23;20055;-77
2023/08/31 05:53:07;;;;;;;6.45;3.08;;;;;;;15.03;87.55;96338.44;6215055;23;20406;-77
2023/08/31 05:55:35;;;;;;;5.40;3.05;;;;;;;15.04;85.49;96329.56;6215675;23;20020;-77
2023/08/31 05:58:04;;;;;;;5.55;2.78;;;;;;;15.01;84.76;96339.69;6215642;23;20083;-78
2023/08/31 06:00:32;;;;;;;3.97;2.72;;;;;;;15.02;85.41;96343.91;6214950;23;20484;-76
2023/08/31 06:02:59;;;;;;;5.07;3.47;;;;;;;15.07;85.47;96354.59;6215821;23;20024;-76
2023/08/31 06:05:29;;;;;;;3.25;2.88;;;;;;;15.13;85.79;96353.75;6216287;23;20027;-76
2023/08/31 06:07:56;;;;;;;3.65;2.92;;;;;;;15.16;84.74;96348.03;6215650;23;20050;-76
2023/08/31 06:10:24;;;;;;;5.00;2.75;;;;;;;15.19;84.13;96360.72;6215160;23;20397;-76
2023/08/31 06:12:52;;;;;;;5.35;3.00;;;;;;;15.24;85.12;96362.72;6214895;23;20054;-76
2023/08/31 06:15:21;;;;;;;4.53;2.70;;;;;;;15.29;84.98;96372.59;6215089;23;20024;-76
2023/08/31 06:17:49;;;;;;;3.20;2.33;;;;;;;15.32;85.16;96366.88;6214866;23;20017;-76
2023/08/31 06:20:17;;;;;;;4.38;2.70;;;;;;;15.33;84.53;96373.78;6214234;23;20103;-76
2023/08/31 06:22:44;;;;;;;4.80;2.38;;;;;;;15.33;84.60;96374.56;6214359;23;20025;-76
2023/08/31 06:25:15;;;;;;;3.83;2.40;;;;;;;15.34;83.92;96370.91;6214504;23;20035;-76
2023/08/31 06:27:43;;;;;;;2.75;2.15;;;;;;;15.34;82.70;96375.38;6214738;23;20025;-76
2023/08/31 06:30:15;;;;;;;3.00;1.85;;;;;;;15.32;81.10;96370.31;6214448;23;20024;-76
2023/08/31 06:32:45;;;;;;;3.35;2.38;;;;;;;15.32;82.02;96377.41;6214479;23;20504;-77
2023/08/31 06:35:15;;;;;;;3.05;2.38;;;;;;;15.34;82.89;96380.63;6215345;23;20354;-76
2023/08/31 06:37:43;;;;;;;5.25;2.50;;;;;;;15.36;84.16;96375.94;6214901;23;20052;-77
2023/08/31 06:40:11;;;;;;;5.60;2.47;;;;;;;15.40;83.91;96385.81;6215696;23;20025;-76
2023/08/31 06:42:39;;;;;;;5.65;2.58;;;;;;;15.45;84.55;96383.31;6227317;23;20024;-77
2023/08/31 06:45:08;;;;;;;3.08;2.33;;;;;;;15.52;84.50;96385.88;6214818;23;20025;-76
2023/08/31 06:47:36;;;;;;;3.13;2.30;;;;;;;15.61;84.82;96387.22;6214600;23;20067;-76
2023/08/31 06:50:06;;;;;;;3.75;2.05;;;;;;;15.69;83.63;96387.94;6214679;23;20024;-76
2023/08/31 06:52:34;;;;;;;3.72;2.30;;;;;;;15.74;80.90;96393.38;6214718;23;20024;-76
2023/08/31 06:55:06;;;;;;;4.38;2.65;;;;;;;15.80;79.83;96398.56;6214954;23;20354;-76
2023/08/31 06:57:34;;;;;;;3.17;2.33;;;;;;;15.89;80.01;96403.53;6214463;23;20021;-76
2023/08/31 07:00:03;;;;;;;5.43;2.25;;;;;;;15.97;79.94;96401.41;6214980;23;20450;-77
2023/08/31 07:02:31;;;;;;;3.28;2.10;;;;;;;16.08;77.67;96406.97;6214560;23;20051;-76
2023/08/31 07:04:58;;;;;;;2.97;2.30;;;;;;;16.19;79.03;96403.59;6214294;23;20058;-76
2023/08/31 07:07:27;;;;;;;4.32;2.03;;;;;;;16.26;78.38;96409.56;6214657;23;20028;-76
2023/08/31 07:09:55;;;;;;;3.58;2.00;;;;;;;16.33;78.25;96414.75;6214891;23;20025;-78
2023/08/31 07:12:23;;;;;;;2.83;2.20;;;;;;;16.36;78.38;96409.84;6214448;23;20433;-76
2023/08/31 07:14:50;;;;;;;2.72;2.00;;;;;;;16.45;76.68;96423.50;6214181;23;20025;-75
2023/08/31 07:17:19;;;;;;;2.53;1.92;;;;;;;16.53;74.28;96417.94;6214442;23;20079;-76
2023/08/31 07:19:47;;;;;;;2.03;1.80;;;;;;;16.58;75.82;96422.53;6214716;23;20033;-76
2023/08/31 07:22:15;;;;;;;3.08;2.38;;;;;;;16.63;76.04;96420.81;6214874;23;20017;-75
2023/08/31 07:24:44;;;;;;;3.97;2.17;;;;;;;16.67;72.48;96421.16;6214069;23;20512;-76
2023/08/31 07:27:12;;;;;;;4.47;1.80;;;;;;;16.73;72.84;96430.81;6214592;23;20028;-76
2023/08/31 07:29:40;;;;;;;5.00;2.08;;;;;;;16.76;71.50;96425.09;6214209;23;20082;-76
2023/08/31 07:32:08;;;;;;;5.32;1.85;;;;;;;16.81;71.55;96427.06;6213792;23;20024;-75
2023/08/31 07:34:36;;;;;;;3.75;2.03;;;;;;;16.87;73.33;96423.53;6214136;23;20028;-76
2023/08/31 07:37:05;;;;;;;4.78;2.55;;;;;;;16.91;72.83;96416.00;6214188;23;20024;-75
2023/08/31 07:39:32;;;;;;;4.80;2.25;;;;;;;16.97;72.48;96433.53;6213913;23;20090;-76
2023/08/31 07:42:02;;;;;;;4.25;1.85;;;;;;;17.08;72.02;96443.28;6214592;23;20401;-76
2023/08/31 07:44:30;;;;;;;4.72;1.95;;;;;;;17.21;70.19;96443.09;6213948;23;20026;-77
2023/08/31 07:46:57;;;;;;;3.00;1.98;;;;;;;17.30;69.78;96430.38;6214038;23;20031;-76
2023/08/31 07:49:25;;;;;;;4.50;2.35;;;;;;;17.37;68.91;96433.69;6214623;23;20411;-76
2023/08/31 07:51:53;;;;;;;2.35;1.55;;;;;;;17.46;69.90;96436.78;6213896;23;20028;-75
2023/08/31 07:54:21;;;;;;;3.10;1.70;;;;;;;17.61;69.42;96445.03;6214073;23;20021;-76
2023/08/31 07:56:49;;;;;;;3.47;2.03;;;;;;;17.72;68.90;96446.06;6214493;23;20087;-76
2023/08/31 07:59:18;;;;;;;4.43;1.92;;;;;;;17.83;68.97;96445.28;6219802;23;20075;-76
2023/08/31 08:01:47;;;;;;;3.90;1.95;;;;;;;18.01;69.62;96462.00;6223302;23;20024;-76
2023/08/31 08:04:15;;;;;;;4.68;2.40;;;;;;;18.11;66.92;96462.22;6218252;23;20017;-75
2023/08/31 08:06:42;;;;;;;6.65;1.95;;;;;;;18.09;65.14;96472.22;6214748;23;20059;-75
2023/08/31 08:09:10;;;;;;;4.68;1.77;;;;;;;18.01;64.54;96464.66;6213372;23;20075;-75
2023/08/31 08:11:37;;;;;;;4.18;1.80;;;;;;;18.02;64.75;96485.53;6213729;23;20024;-75
2023/08/31 08:14:05;;;;;;;4.85;1.92;;;;;;;18.00;63.55;96474.41;6213582;23;20079;-74
2023/08/31 08:16:35;;;;;;;3.83;2.33;;;;;;;17.97;62.62;96493.34;6213776;23;20024;-76
2023/08/31 08:19:03;;;;;;;3.88;1.85;;;;;;;17.97;62.17;96490.69;6213859;23;20024;-76
2023/08/31 08:21:30;;;;;;;4.30;1.50;;;;;;;18.03;60.41;96483.69;6214604;23;20021;-75
2023/08/31 08:23:58;;;;;;;5.88;1.60;;;;;;;18.03;62.89;96481.84;6214201;23;20020;-75
2023/08/31 08:26:25;;;;;;;4.93;2.05;;;;;;;18.09;60.36;96477.50;6214072;23;20477;-75
2023/08/31 08:28:53;;;;;;;4.93;1.80;;;;;;;18.10;61.13;96479.09;6214257;23;20410;-75
2023/08/31 08:31:21;;;;;;;4.63;1.60;;;;;;;18.19;62.12;96479.53;6213772;23;20025;-75
2023/08/31 08:33:51;;;;;;;3.33;1.38;;;;;;;18.31;62.46;96482.97;6213956;23;20456;-75
2023/08/31 08:36:19;;;;;;;3.15;1.50;;;;;;;18.33;60.15;96480.88;6214098;23;20021;-75
2023/08/31 08:38:47;;;;;;;2.38;1.50;;;;;;;18.30;60.55;96481.34;6214009;23;20465;-76
2023/08/31 08:41:17;;;;;;;6.82;1.85;;;;;;;18.27;61.48;96487.09;6214083;23;20027;-75
2023/08/31 08:43:48;;;;;;;6.40;1.90;;;;;;;18.18;58.75;96489.28;6213790;23;20402;-75
2023/08/31 08:46:15;;;;;;;3.60;1.38;;;;;;;18.16;59.22;96485.28;6214251;23;20074;-75
2023/08/31 08:48:45;;;;;;;3.47;1.85;;;;;;;18.10;58.13;96489.66;6224789;23;20084;-75
2023/08/31 08:51:14;;;;;;;7.22;1.90;;;;;;;17.98;56.43;96494.16;6214467;23;20104;-75
2023/08/31 08:53:44;;;;;;;5.85;1.67;;;;;;;18.00;56.89;96492.88;6213237;23;20024;-78
2023/08/31 08:56:11;;;;;;;6.63;2.50;;;;;;;18.01;56.44;96494.47;6212331;23;20071;-78
2023/08/31 08:58:39;;;;;;;4.72;1.63;;;;;;;18.06;55.11;96497.25;6212503;23;20025;-78
2023/08/31 09:01:09;;;;;;;5.80;1.90;;;;;;;18.21;55.98;96503.88;6212655;23;20035;-78
2023/08/31 09:03:36;;;;;;;3.58;1.73;;;;;;;18.36;55.02;96498.91;6212066;23;20016;-78
2023/08/31 09:06:07;;;;;;;4.03;1.63;;;;;;;18.51;54.68;96503.69;6213338;23;20067;-77
2023/08/31 09:08:37;;;;;;;4.05;1.70;;;;;;;18.63;53.40;96501.00;6215297;23;20504;-78
2023/08/31 09:11:05;;;;;;;3.53;1.60;;;;;;;18.74;53.40;96502.81;6216332;23;20021;-79
2023/08/31 09:13:33;;;;;;;4.40;1.73;;;;;;;18.92;53.45;96510.56;6216137;23;20075;-78
2023/08/31 09:16:01;;;;;;;3.10;1.55;;;;;;;19.14;52.82;96502.75;6216114;23;20028;-78
2023/08/31 09:18:31;;;;;;;2.30;1.45;;;;;;;19.38;54.99;96504.47;6215868;23;20025;-78
2023/08/31 09:21:00;;;;;;;7.32;2.08;;;;;;;19.62;52.83;96494.53;6215948;23;20024;-78
2023/08/31 09:23:28;;;;;;;3.67;2.03;;;;;;;19.85;50.63;96496.22;6216064;23;20026;-78
2023/08/31 09:25:57;;;;;;;3.05;1.60;;;;;;;19.97;49.13;96499.56;6216344;23;20444;-78
2023/08/31 09:28:27;;;;;;;4.78;1.38;;;;;;;20.01;49.12;96503.34;6215957;23;20021;-78
2023/08/31 09:31:06;;;;;;;3.85;2.20;;;;;;;20.18;48.80;96500.63;6215819;23;20024;-78
2023/08/31 09:33:35;;;;;;;3.20;2.40;;;;;;;20.32;49.37;96501.09;6216337;23;20020;-78
2023/08/31 09:36:03;;;;;;;4.93;2.53;;;;;;;20.45;48.86;96506.00;6216646;23;20025;-78
2023/08/31 09:38:31;;;;;;;4.18;1.73;;;;;;;20.40;46.59;96492.72;6217523;23;20020;-78
2023/08/31 09:41:06;;;;;;;3.97;1.83;;;;;;;20.29;45.31;96499.75;6217190;23;20082;-78
2023/08/31 09:43:34;;;;;;;6.45;2.10;;;;;;;20.21;45.74;96499.38;6216288;23;20473;-78
2023/08/31 09:46:04;;;;;;;2.90;1.90;;;;;;;20.17;44.84;96499.03;6217033;23;20024;-77
2023/08/31 09:48:32;;;;;;;4.43;2.28;;;;;;;20.26;46.46;96497.56;6216800;23;20020;-80
2023/08/31 09:51:04;;;;;;;6.05;2.13;;;;;;;20.22;44.52;96500.94;6216279;23;20028;-77
2023/08/31 09:53:32;;;;;;;5.07;1.98;;;;;;;20.05;44.94;96491.22;6216565;23;20027;-78
2023/08/31 09:56:00;;;;;;;4.88;2.08;;;;;;;19.87;42.78;96500.22;6217522;23;20021;-77
2023/08/31 09:58:31;;;;;;;3.00;1.90;;;;;;;19.75;46.50;96505.63;6217585;23;20025;-77
2023/08/31 10:00:59;;;;;;;2.60;1.73;;;;;;;19.63;45.23;96509.34;6215570;23;20032;-78
2023/08/31 10:03:28;;;;;;;4.13;1.80;;;;;;;19.50;45.94;96505.19;6215363;23;20020;-78
2023/08/31 10:05:56;;;;;;;4.78;1.88;;;;;;;19.41;45.01;96514.56;6214919;23;20016;-77
2023/08/31 10:08:26;;;;;;;3.22;1.73;;;;;;;19.31;45.51;96523.16;6215471;23;20350;-78
2023/08/31 10:10:54;;;;;;;4.95;1.73;;;;;;;19.19;46.67;96527.69;6215288;23;20336;-77
2023/08/31 10:13:22;;;;;;;6.85;2.45;;;;;;;19.08;46.33;96524.06;6215201;23;20397;-77
2023/08/31 10:15:53;;;;;;;3.58;1.40;;;;;;;18.98;47.05;96531.81;6214027;23;20021;-77
2023/08/31 10:18:21;;;;;;;4.65;1.70;;;;;;;18.90;54.02;96527.72;6215378;23;20024;-78
2023/08/31 10:20:49;;;;;;;4.05;1.90;;;;;;;18.85;50.25;96525.00;6215484;23;20266;-78
2023/08/31 10:23:17;;;;;;;3.63;1.58;;;;;;;18.82;52.50;96531.53;6214814;23;20088;-78
2023/08/31 10:26:06;;;;;;;3.30;1.73;;;;;;;18.77;50.95;96522.69;6215313;23;20144;-78
2023/08/31 10:28:41;;;;;;;3.88;1.98;;;;;;;18.80;55.71;96527.50;6215398;23;20021;-79
2023/08/31 10:31:11;;;;;;;2.28;1.40;;;;;;;18.84;51.51;96529.44;6214838;23;20020;-78
2023/08/31 10:33:42;;;;;;;2.45;1.33;;;;;;;18.90;53.43;96517.94;6214943;23;20100;-78
2023/08/31 10:36:11;;;;;;;3.83;1.70;;;;;;;18.95;51.29;96519.88;6220054;23;20028;-80
2023/08/31 10:38:39;;;;;;;3.67;1.30;;;;;;;18.92;52.86;96523.00;6216262;23;20021;-79
2023/08/31 10:41:24;;;;;;;3.97;1.83;;;;;;;18.88;53.67;96521.84;6215916;23;20062;-81
2023/08/31 10:43:53;;;;;;;4.20;1.88;;;;;;;18.87;53.52;96522.88;6237992;22;20016;-80
2023/08/31 10:46:30;;;;;;;6.40;2.10;;;;;;;18.93;51.37;96512.19;6236735;23;20019;-81
2023/08/31 10:48:59;;;;;;;3.95;1.50;;;;;;;19.05;51.87;96516.63;6217643;23;20516;-79
2023/08/31 10:51:29;;;;;;;4.25;1.85;;;;;;;19.16;51.06;96505.19;6219167;23;20031;-79
2023/08/31 10:54:09;;;;;;;5.07;1.70;;;;;;;19.25;51.25;96505.59;6222414;23;20024;-81
2023/08/31 10:56:54;;;;;;;2.72;1.35;;;;;;;19.28;50.48;96513.81;6220643;23;20027;-79
2023/08/31 10:59:22;;;;;;;2.50;1.65;;;;;;;19.23;50.45;96521.69;6215004;23;20017;-79
2023/08/31 11:02:00;;;;;;;5.05;2.03;;;;;;;19.16;50.35;96528.19;6218434;23;20028;-81
2023/08/31 11:05:07;;;;;;;4.22;1.38;;;;;;;19.04;50.36;96533.50;6229921;23;20016;-81
2023/08/31 11:07:36;;;;;;;3.17;1.52;;;;;;;18.94;52.19;96534.13;6234618;23;20016;-81
2023/08/31 11:10:10;;;;;;;6.22;1.80;;;;;;;18.86;50.06;96537.94;6236781;22;20020;-82
2023/08/31 11:12:37;;;;;;;2.83;1.63;;;;;;;18.75;50.70;96533.47;6239404;22;20001;-80
2023/08/31 11:15:06;;;;;;;8.38;2.47;;;;;;;18.64;51.55;96534.31;6242220;22;20021;-79
2023/08/31 11:17:34;;;;;;;6.57;2.53;;;;;;;18.52;50.63;96532.53;6241576;22;20012;-79
2023/08/31 11:20:06;;;;;;;5.53;2.67;;;;;;;18.56;51.30;96537.31;6242117;22;20032;-80
2023/08/31 11:22:34;;;;;;;2.83;1.70;;;;;;;18.63;50.99;96537.97;6242766;22;20005;-80
2023/08/31 11:25:03;;;;;;;2.85;1.63;;;;;;;18.64;49.80;96523.75;6243178;22;20064;-80
2023/08/31 11:27:31;;;;;;;3.47;1.60;;;;;;;18.66;51.21;96532.25;6241781;22;20024;-80
2023/08/31 11:29:58;;;;;;;2.78;1.70;;;;;;;18.81;53.28;96529.13;6239925;22;20056;-81
2023/08/31 11:32:28;;;;;;;3.60;1.52;;;;;;;18.99;54.06;96528.13;6240735;22;20009;-82
2023/08/31 11:34:56;;;;;;;3.83;1.08;;;;;;;19.16;51.58;96517.59;6236657;22;20020;-80
2023/08/31 11:37:26;;;;;;;2.40;1.25;;;;;;;19.32;51.29;96519.44;6227605;23;20078;-80
2023/08/31 11:39:54;;;;;;;2.08;1.30;;;;;;;19.44;50.30;96522.00;6219287;23;20028;-80
2023/08/31 11:42:22;;;;;;;4.20;1.52;;;;;;;19.55;47.90;96507.94;6218081;23;20020;-81
2023/08/31 11:44:54;;;;;;;2.75;1.40;;;;;;;19.66;47.36;96509.69;6216720;23;20021;-81